createdAt,value
2017-08-14T00:01:16.409Z,10.37
2017-08-14T00:03:42.980Z,10.10
2017-08-14T00:06:09.262Z,8.90
2017-08-14T00:08:35.644Z,8.70
2017-08-14T00:11:01.866Z,9.43
2017-08-14T00:13:28.056Z,11.70
2017-08-14T00:15:54.533Z,9.47
2017-08-14T00:18:20.705Z,9.17
2017-08-14T00:20:46.837Z,8.83
2017-08-14T00:23:20.141Z,10.70
2017-08-14T00:25:46.999Z,10.43
2017-08-14T00:28:14.001Z,9.97
2017-08-14T00:30:40.478Z,10.30
2017-08-14T00:33:06.764Z,9.93
2017-08-14T00:35:32.917Z,10.63
2017-08-14T00:37:59.152Z,12.27
2017-08-14T00:40:25.468Z,11.10
2017-08-14T00:42:51.668Z,11.43
2017-08-14T00:45:17.925Z,11.83
2017-08-14T00:47:44.049Z,10.30
2017-08-14T00:50:10.203Z,11.00
2017-08-14T00:52:36.638Z,9.90
2017-08-14T00:55:03.115Z,9.83
2017-08-14T00:57:29.353Z,8.60
2017-08-14T00:59:55.608Z,10.10
2017-08-14T01:02:21.733Z,9.50
2017-08-14T01:04:47.923Z,9.63
2017-08-14T01:07:14.985Z,8.70
2017-08-14T01:09:41.862Z,8.10
2017-08-14T01:12:08.810Z,9.20
2017-08-14T01:14:35.146Z,9.70
2017-08-14T01:17:01.311Z,8.43
2017-08-14T01:19:27.484Z,7.83
2017-08-14T01:21:54.649Z,9.03
2017-08-14T01:24:21.638Z,8.63
2017-08-14T01:26:48.520Z,8.87
2017-08-14T01:29:15.493Z,9.10
2017-08-14T01:31:42.436Z,8.70
2017-08-14T01:34:09.386Z,8.17
2017-08-14T01:36:35.725Z,9.03
2017-08-14T01:39:02.842Z,9.03
2017-08-14T01:41:29.061Z,9.07
2017-08-14T01:43:55.439Z,8.73
2017-08-14T01:46:22.023Z,8.50
2017-08-14T01:48:48.351Z,9.03
2017-08-14T01:51:14.604Z,8.80
2017-08-14T01:53:40.703Z,9.27
2017-08-14T01:56:07.122Z,9.50
2017-08-14T01:58:33.407Z,9.07
2017-08-14T02:00:59.603Z,9.07
2017-08-14T02:03:25.727Z,8.30
2017-08-14T02:05:52.113Z,9.30
2017-08-14T02:08:18.264Z,9.50
2017-08-14T02:10:44.415Z,11.40
2017-08-14T02:13:10.771Z,8.37
2017-08-14T02:15:37.729Z,9.30
2017-08-14T02:18:03.973Z,8.77
2017-08-14T02:20:31.114Z,10.30
2017-08-14T02:22:58.025Z,9.97
2017-08-14T02:25:24.122Z,8.93
2017-08-14T02:27:50.505Z,8.80
2017-08-14T02:30:16.706Z,9.20
2017-08-14T02:32:42.939Z,9.10
2017-08-14T02:35:09.175Z,9.37
2017-08-14T02:37:35.395Z,8.30
2017-08-14T02:40:01.519Z,8.80
2017-08-14T02:42:27.758Z,9.50
2017-08-14T02:44:53.957Z,9.73
2017-08-14T02:47:20.095Z,9.77
2017-08-14T02:49:46.337Z,10.00
2017-08-14T02:52:12.539Z,9.47
2017-08-14T02:54:38.683Z,9.30
2017-08-14T02:57:05.395Z,9.60
2017-08-14T02:59:31.601Z,9.87
2017-08-14T03:01:57.769Z,9.57
2017-08-14T03:04:24.136Z,9.10
2017-08-14T03:06:50.338Z,8.67
2017-08-14T03:09:16.459Z,8.60
2017-08-14T03:11:42.821Z,9.40
2017-08-14T03:14:09.106Z,7.97
2017-08-14T03:16:35.239Z,8.47
2017-08-14T03:19:01.609Z,9.03
2017-08-14T03:21:27.798Z,8.20
2017-08-14T03:23:53.897Z,8.30
2017-08-14T03:26:20.143Z,8.30
2017-08-14T03:28:47.023Z,9.00
2017-08-14T03:31:13.207Z,8.53
2017-08-14T03:33:39.469Z,8.20
2017-08-14T03:36:06.325Z,8.47
2017-08-14T03:38:32.526Z,7.80
2017-08-14T03:40:58.912Z,8.33
2017-08-14T03:43:25.087Z,8.47
2017-08-14T03:45:51.938Z,7.97
2017-08-14T03:48:18.177Z,7.30
2017-08-14T03:50:45.172Z,7.60
2017-08-14T03:53:18.354Z,8.10
2017-08-14T03:55:44.516Z,7.40
2017-08-14T03:58:10.925Z,6.93
2017-08-14T04:00:37.199Z,6.60
2017-08-14T04:03:04.137Z,7.40
2017-08-14T04:05:30.246Z,6.50
2017-08-14T04:07:56.560Z,6.60
2017-08-14T04:10:22.723Z,6.67
2017-08-14T04:12:48.830Z,6.97
2017-08-14T04:15:15.103Z,6.60
2017-08-14T04:17:41.279Z,6.60
2017-08-14T04:20:07.429Z,6.70
2017-08-14T04:22:33.788Z,7.40
2017-08-14T04:25:00.774Z,6.70
2017-08-14T04:27:26.865Z,6.63
2017-08-14T04:29:53.332Z,6.73
2017-08-14T04:32:19.481Z,6.90
2017-08-14T04:34:45.647Z,6.83
2017-08-14T04:37:12.034Z,6.00
2017-08-14T04:39:38.892Z,6.80
2017-08-14T04:42:05.032Z,6.00
2017-08-14T04:44:32.193Z,6.50
2017-08-14T04:46:58.385Z,5.77
2017-08-14T04:49:25.241Z,6.43
2017-08-14T04:51:52.227Z,6.87
2017-08-14T04:54:19.144Z,6.60
2017-08-14T04:56:45.363Z,5.40
2017-08-14T04:59:12.133Z,5.10
2017-08-14T05:01:39.049Z,5.83
2017-08-14T05:04:05.989Z,7.10
2017-08-14T05:06:32.232Z,8.97
2017-08-14T05:08:58.433Z,6.70
2017-08-14T05:11:24.555Z,6.60
2017-08-14T05:13:50.852Z,6.67
2017-08-14T05:16:17.103Z,6.50
2017-08-14T05:18:43.989Z,6.10
2017-08-14T05:21:10.939Z,7.33
2017-08-14T05:23:37.865Z,6.67
2017-08-14T05:26:03.960Z,7.90
2017-08-14T05:28:31.034Z,7.40
2017-08-14T05:30:57.947Z,7.97
2017-08-14T05:33:24.824Z,7.37
2017-08-14T05:35:51.821Z,6.50
2017-08-14T05:38:18.713Z,6.80
2017-08-14T05:40:44.815Z,6.80
2017-08-14T05:43:11.809Z,6.93
2017-08-14T05:45:37.973Z,5.27
2017-08-14T05:48:04.117Z,8.20
2017-08-14T05:50:31.207Z,6.10
2017-08-14T05:52:57.441Z,5.47
2017-08-14T05:55:23.625Z,7.07
2017-08-14T05:57:50.707Z,5.47
2017-08-14T06:00:17.160Z,5.07
2017-08-14T06:02:43.399Z,5.87
2017-08-14T06:05:09.802Z,5.50
2017-08-14T06:07:35.992Z,7.43
2017-08-14T06:10:02.169Z,5.03
2017-08-14T06:12:28.486Z,6.17
2017-08-14T06:14:54.689Z,6.60
2017-08-14T06:17:20.850Z,5.73
2017-08-14T06:19:47.269Z,6.43
2017-08-14T06:22:13.386Z,4.00
2017-08-14T06:24:39.523Z,4.83
2017-08-14T06:27:05.929Z,5.33
2017-08-14T06:29:32.789Z,3.93
2017-08-14T06:31:59.020Z,6.20
2017-08-14T06:34:25.449Z,5.10
2017-08-14T06:36:51.562Z,4.00
2017-08-14T06:39:18.423Z,4.43
2017-08-14T06:41:44.811Z,5.80
2017-08-14T06:44:11.711Z,3.97
2017-08-14T06:46:37.907Z,4.00
2017-08-14T06:49:04.890Z,20.37
2017-08-14T06:51:31.827Z,6.67
2017-08-14T06:53:58.027Z,4.37
2017-08-14T06:56:24.299Z,3.37
2017-08-14T06:58:50.457Z,3.43
2017-08-14T07:01:16.694Z,4.27
2017-08-14T07:03:42.895Z,3.60
2017-08-14T07:06:09.067Z,5.00
2017-08-14T07:08:35.436Z,3.10
2017-08-14T07:11:02.504Z,2.80
2017-08-14T07:13:28.659Z,2.40
2017-08-14T07:15:54.796Z,6.30
2017-08-14T07:18:20.961Z,2.27
2017-08-14T07:20:47.958Z,4.20
2017-08-14T07:23:14.110Z,5.13
2017-08-14T07:25:40.473Z,3.17
2017-08-14T07:28:07.450Z,2.90
2017-08-14T07:30:33.614Z,2.33
2017-08-14T07:32:59.994Z,4.40
2017-08-14T07:35:26.262Z,2.40
2017-08-14T07:37:52.336Z,3.60
2017-08-14T07:40:18.606Z,4.20
2017-08-14T07:42:49.834Z,3.03
2017-08-14T07:45:16.069Z,2.40
2017-08-14T07:47:42.274Z,3.00
2017-08-14T07:50:08.445Z,2.37
2017-08-14T07:52:34.577Z,2.83
2017-08-14T07:55:00.831Z,3.47
2017-08-14T07:57:27.021Z,6.10
2017-08-14T07:59:54.077Z,3.50
2017-08-14T08:02:20.224Z,6.30
2017-08-14T08:04:46.411Z,5.40
2017-08-14T08:07:12.559Z,4.90
2017-08-14T08:09:38.954Z,2.17
2017-08-14T08:12:05.111Z,2.80
2017-08-14T08:14:31.223Z,1.93
2017-08-14T08:16:57.354Z,2.47
2017-08-14T08:19:23.651Z,2.93
2017-08-14T08:21:49.835Z,2.63
2017-08-14T08:24:15.980Z,2.30
2017-08-14T08:26:42.205Z,2.13
2017-08-14T08:29:08.430Z,2.40
2017-08-14T08:31:34.679Z,3.57
2017-08-14T08:34:00.783Z,3.23
2017-08-14T08:36:27.006Z,3.50
2017-08-14T08:38:53.242Z,1.90
2017-08-14T08:41:19.456Z,3.97
2017-08-14T08:43:45.666Z,3.40
2017-08-14T08:46:15.978Z,2.30
2017-08-14T08:48:42.238Z,2.00
2017-08-14T08:51:08.474Z,3.30
2017-08-14T08:53:35.605Z,2.20
2017-08-14T08:56:01.838Z,2.47
2017-08-14T08:58:28.494Z,3.40
2017-08-14T09:00:54.704Z,5.53
2017-08-14T09:03:20.833Z,6.33
2017-08-14T09:05:47.061Z,3.20
2017-08-14T09:08:13.397Z,4.23
2017-08-14T09:10:39.910Z,3.37
2017-08-14T09:13:06.076Z,2.60
2017-08-14T09:15:32.456Z,2.80
2017-08-14T09:17:58.820Z,4.03
2017-08-14T09:20:25.227Z,3.20
2017-08-14T09:22:51.486Z,3.80
2017-08-14T09:25:17.773Z,3.60
2017-08-14T09:27:43.952Z,2.03
2017-08-14T09:30:10.185Z,6.10
2017-08-14T09:32:36.304Z,2.70
2017-08-14T09:35:02.602Z,2.50
2017-08-14T09:37:29.014Z,1.80
2017-08-14T09:39:55.250Z,3.70
2017-08-14T09:42:21.389Z,2.43
2017-08-14T09:44:47.643Z,3.77
2017-08-14T09:47:20.869Z,3.50
2017-08-14T09:49:47.098Z,2.60
2017-08-14T09:52:13.309Z,3.83
2017-08-14T09:54:39.506Z,3.30
2017-08-14T09:57:06.270Z,3.10
2017-08-14T09:59:32.549Z,6.37
2017-08-14T10:01:58.783Z,3.33
2017-08-14T10:04:24.989Z,3.60
2017-08-14T10:06:51.137Z,3.80
2017-08-14T10:09:17.390Z,2.40
2017-08-14T10:11:44.219Z,2.10
2017-08-14T10:14:11.983Z,2.77
2017-08-14T10:16:38.195Z,3.13
2017-08-14T10:19:04.659Z,2.10
2017-08-14T10:21:31.103Z,2.17
2017-08-14T10:23:58.317Z,2.03
2017-08-14T10:26:24.830Z,4.13
2017-08-14T10:28:51.036Z,2.83
2017-08-14T10:31:17.282Z,3.50
2017-08-14T10:33:43.558Z,3.67
2017-08-14T10:36:09.753Z,2.50
2017-08-14T10:38:35.898Z,4.43
2017-08-14T10:41:02.245Z,5.93
2017-08-14T10:43:28.458Z,2.00
2017-08-14T10:45:54.674Z,2.90
2017-08-14T10:48:20.921Z,8.13
2017-08-14T10:50:47.090Z,3.60
2017-08-14T10:53:13.467Z,1.90
2017-08-14T10:55:39.867Z,2.37
2017-08-14T10:58:06.030Z,3.07
2017-08-14T11:00:32.243Z,3.33
2017-08-14T11:02:58.552Z,3.27
2017-08-14T11:05:24.715Z,6.37
2017-08-14T11:07:50.888Z,6.00
2017-08-14T11:10:17.276Z,2.97
2017-08-14T11:12:44.224Z,2.70
2017-08-14T11:15:10.442Z,1.93
2017-08-14T11:17:36.706Z,1.90
2017-08-14T11:20:02.889Z,2.67
2017-08-14T11:22:29.027Z,1.97
2017-08-14T11:24:55.359Z,2.00
2017-08-14T11:27:22.596Z,1.70
2017-08-14T11:29:52.226Z,2.40
2017-08-14T11:32:18.859Z,1.63
2017-08-14T11:34:45.696Z,3.47
2017-08-14T11:37:12.327Z,2.80
2017-08-14T11:39:39.206Z,2.83
2017-08-14T11:42:05.479Z,1.80
2017-08-14T11:44:31.657Z,2.07
2017-08-14T11:46:58.000Z,2.90
2017-08-14T11:49:24.179Z,3.33
2017-08-14T11:51:50.474Z,2.30
2017-08-14T11:54:16.962Z,3.50
2017-08-14T11:56:43.174Z,3.50
2017-08-14T11:59:09.302Z,2.70
2017-08-14T12:01:35.671Z,2.80
2017-08-14T12:04:01.871Z,3.07
2017-08-14T12:06:28.041Z,2.67
2017-08-14T12:08:54.271Z,5.10
2017-08-14T12:11:20.402Z,2.83
2017-08-14T12:13:46.531Z,2.17
2017-08-14T12:16:12.899Z,2.13
2017-08-14T12:18:39.077Z,3.83
2017-08-14T12:21:05.252Z,3.50
2017-08-14T12:23:31.507Z,2.30
2017-08-14T12:25:57.680Z,2.37
2017-08-14T12:28:23.801Z,2.40
2017-08-14T12:30:50.060Z,3.97
2017-08-14T12:33:16.254Z,2.30
2017-08-14T12:35:42.469Z,3.20
2017-08-14T12:38:08.814Z,2.63
2017-08-14T12:40:34.999Z,3.00
2017-08-14T12:43:01.182Z,3.20
2017-08-14T12:45:28.281Z,5.57
2017-08-14T12:47:54.466Z,2.50
2017-08-14T12:50:20.674Z,3.90
2017-08-14T12:52:47.936Z,3.60
2017-08-14T12:55:14.323Z,2.83
2017-08-14T12:57:40.569Z,3.07
2017-08-14T13:00:07.180Z,3.77
2017-08-14T13:02:33.578Z,2.60
2017-08-14T13:05:00.277Z,3.20
2017-08-14T13:07:27.599Z,2.83
2017-08-14T13:09:54.117Z,2.37
2017-08-14T13:12:20.564Z,5.57
2017-08-14T13:14:47.122Z,4.30
2017-08-14T13:17:13.513Z,3.73
2017-08-14T13:19:39.812Z,3.50
2017-08-14T13:22:06.106Z,2.20
2017-08-14T13:24:32.421Z,2.50
2017-08-14T13:26:58.695Z,2.50
2017-08-14T13:29:24.973Z,3.70
2017-08-14T13:31:51.171Z,5.60
2017-08-14T13:34:17.285Z,3.50
2017-08-14T13:36:43.557Z,4.03
2017-08-14T13:39:09.769Z,3.80
2017-08-14T13:41:36.060Z,3.60
2017-08-14T13:44:02.363Z,3.10
2017-08-14T13:46:28.528Z,4.20
2017-08-14T13:48:54.747Z,4.07
2017-08-14T13:51:20.950Z,3.57
2017-08-14T13:53:47.117Z,2.93
2017-08-14T13:56:14.007Z,3.33
2017-08-14T13:58:40.201Z,3.17
2017-08-14T14:01:06.315Z,4.03
2017-08-14T14:03:32.480Z,2.70
2017-08-14T14:05:58.680Z,3.30
2017-08-14T14:08:24.785Z,3.50
2017-08-14T14:10:50.929Z,2.77
2017-08-14T14:13:17.081Z,4.10
2017-08-14T14:15:43.296Z,3.90
2017-08-14T14:18:09.530Z,3.20
2017-08-14T14:20:35.853Z,4.30
2017-08-14T14:23:02.195Z,4.47
2017-08-14T14:25:28.411Z,4.07
2017-08-14T14:27:54.729Z,4.10
2017-08-14T14:30:20.841Z,3.13
2017-08-14T14:32:46.948Z,4.93
2017-08-14T14:35:13.302Z,3.30
2017-08-14T14:37:39.450Z,3.10
2017-08-14T14:40:05.658Z,2.60
2017-08-14T14:42:31.836Z,3.13
2017-08-14T14:44:58.099Z,3.10
2017-08-14T14:47:24.251Z,2.50
2017-08-14T14:49:51.126Z,2.17
2017-08-14T14:52:17.296Z,3.50
2017-08-14T14:54:43.496Z,5.03
2017-08-14T14:57:09.732Z,3.90
2017-08-14T14:59:35.922Z,2.83
2017-08-14T15:02:02.149Z,3.10
2017-08-14T15:04:28.478Z,2.73
2017-08-14T15:06:55.441Z,2.70
2017-08-14T15:09:21.619Z,3.40
2017-08-14T15:11:48.266Z,2.70
2017-08-14T15:14:14.381Z,2.70
2017-08-14T15:16:40.538Z,2.80
2017-08-14T15:19:06.766Z,2.30
2017-08-14T15:21:33.075Z,2.87
2017-08-14T15:23:59.206Z,2.80
2017-08-14T15:26:26.168Z,2.87
2017-08-14T15:28:52.506Z,3.00
2017-08-14T15:31:18.701Z,3.10
2017-08-14T15:33:44.999Z,3.20
2017-08-14T15:36:11.206Z,2.83
2017-08-14T15:38:37.441Z,3.30
2017-08-14T15:41:03.657Z,4.20
2017-08-14T15:43:29.982Z,2.70
2017-08-14T15:45:56.114Z,4.30
2017-08-14T15:48:23.075Z,3.10
2017-08-14T15:50:49.241Z,4.33
2017-08-14T15:53:15.369Z,4.00
2017-08-14T15:55:42.592Z,3.40
2017-08-14T15:58:08.766Z,4.73
2017-08-14T16:00:35.218Z,4.47
2017-08-14T16:03:01.513Z,3.73
2017-08-14T16:05:27.636Z,4.40
2017-08-14T16:07:53.778Z,3.70
2017-08-14T16:10:19.969Z,6.30
2017-08-14T16:12:46.235Z,5.27
2017-08-14T16:15:12.328Z,5.10
2017-08-14T16:17:38.511Z,3.73
2017-08-14T16:20:04.715Z,4.60
2017-08-14T16:22:30.848Z,10.30
2017-08-14T16:24:57.246Z,4.70
2017-08-14T16:27:23.427Z,4.20
2017-08-14T16:29:49.638Z,5.30
2017-08-14T16:32:15.935Z,4.60
2017-08-14T16:34:42.207Z,4.90
2017-08-14T16:37:08.399Z,3.80
2017-08-14T16:39:34.721Z,4.40
2017-08-14T16:42:00.930Z,3.47
2017-08-14T16:44:27.097Z,4.00
2017-08-14T16:46:53.354Z,4.17
2017-08-14T16:49:19.551Z,6.00
2017-08-14T16:51:45.753Z,6.60
2017-08-14T16:54:11.947Z,6.30
2017-08-14T16:56:38.152Z,5.33
2017-08-14T16:59:05.114Z,3.80
2017-08-14T17:01:31.414Z,4.03
2017-08-14T17:03:57.536Z,5.67
2017-08-14T17:06:23.661Z,4.60
2017-08-14T17:08:56.930Z,4.20
2017-08-14T17:11:23.814Z,4.03
2017-08-14T17:13:50.841Z,3.73
2017-08-14T17:16:17.051Z,4.77
2017-08-14T17:18:43.194Z,4.63
2017-08-14T17:21:09.753Z,4.20
2017-08-14T17:23:35.974Z,4.47
2017-08-14T17:26:03.420Z,6.43
2017-08-14T17:28:29.667Z,5.23
2017-08-14T17:30:56.519Z,5.50
2017-08-14T17:33:22.714Z,6.93
2017-08-14T17:35:49.258Z,6.33
2017-08-14T17:38:15.445Z,5.73
2017-08-14T17:40:41.558Z,4.73
2017-08-14T17:43:07.732Z,4.40
2017-08-14T17:45:33.881Z,5.70
2017-08-14T17:48:00.098Z,6.10
2017-08-14T17:50:26.218Z,5.03
2017-08-14T17:52:52.357Z,5.40
2017-08-14T17:55:19.361Z,5.60
2017-08-14T17:57:45.459Z,5.30
2017-08-14T18:00:11.690Z,5.27
2017-08-14T18:02:37.885Z,6.60
2017-08-14T18:05:04.170Z,5.50
2017-08-14T18:07:30.467Z,8.13
2017-08-14T18:09:56.655Z,5.30
2017-08-14T18:12:22.824Z,5.10
2017-08-14T18:14:49.070Z,6.47
2017-08-14T18:17:15.215Z,6.33
2017-08-14T18:19:42.424Z,5.43
2017-08-14T18:22:08.678Z,5.10
2017-08-14T18:24:35.166Z,5.33
2017-08-14T18:27:01.415Z,5.03
2017-08-14T18:29:27.672Z,6.03
2017-08-14T18:31:53.928Z,5.20
2017-08-14T18:34:20.256Z,5.30
2017-08-14T18:36:46.551Z,7.60
2017-08-14T18:39:12.742Z,5.50
2017-08-14T18:41:39.025Z,8.50
2017-08-14T18:44:05.266Z,6.60
2017-08-14T18:46:31.639Z,6.50
2017-08-14T18:48:57.909Z,6.43
2017-08-14T18:51:24.237Z,6.70
2017-08-14T18:53:50.420Z,7.80
2017-08-14T18:56:16.627Z,7.00
2017-08-14T18:58:42.837Z,6.70
2017-08-14T19:01:09.075Z,6.87
2017-08-14T19:03:35.306Z,8.40
2017-08-14T19:06:01.780Z,7.63
2017-08-14T19:08:29.379Z,7.57
2017-08-14T19:10:54.137Z,7.53
2017-08-14T19:13:20.409Z,7.63
2017-08-14T19:15:46.709Z,7.27
2017-08-14T19:18:12.891Z,8.80
2017-08-14T19:20:39.246Z,6.93
2017-08-14T19:23:05.521Z,6.97
2017-08-14T19:25:32.538Z,6.40
2017-08-14T19:27:59.270Z,7.13
2017-08-14T19:30:25.609Z,7.30
2017-08-14T19:32:51.864Z,9.27
2017-08-14T19:35:18.035Z,8.47
2017-08-14T19:37:44.538Z,11.37
2017-08-14T19:40:10.735Z,13.40
2017-08-14T19:42:37.094Z,9.33
2017-08-14T19:45:03.970Z,8.47
2017-08-14T19:47:30.139Z,7.70
2017-08-14T19:49:56.386Z,9.10
2017-08-14T19:52:22.532Z,8.00
2017-08-14T19:54:48.810Z,9.53
2017-08-14T19:57:15.165Z,9.07
2017-08-14T19:59:41.332Z,9.30
2017-08-14T20:02:07.654Z,9.77
2017-08-14T20:04:34.215Z,10.53
2017-08-14T20:07:00.435Z,9.43
2017-08-14T20:09:26.791Z,9.10
2017-08-14T20:11:53.255Z,10.00
2017-08-14T20:14:20.160Z,9.30
2017-08-14T20:16:46.444Z,9.10
2017-08-14T20:19:12.818Z,10.07
2017-08-14T20:21:39.074Z,10.50
2017-08-14T20:24:11.093Z,9.60
2017-08-14T20:26:37.551Z,11.70
2017-08-14T20:29:03.812Z,9.70
2017-08-14T20:31:30.223Z,9.93
2017-08-14T20:33:57.397Z,9.33
2017-08-14T20:36:23.890Z,10.77
2017-08-14T20:38:50.237Z,9.33
2017-08-14T20:41:16.568Z,10.53
2017-08-14T20:43:42.892Z,10.23
2017-08-14T20:46:09.031Z,10.10
2017-08-14T20:48:36.331Z,10.60
2017-08-14T20:51:02.549Z,10.93
2017-08-14T20:53:28.728Z,10.23
2017-08-14T20:55:55.224Z,10.97
2017-08-14T20:58:21.475Z,9.93
2017-08-14T21:00:48.490Z,9.80
2017-08-14T21:03:14.741Z,10.20
2017-08-14T21:05:41.004Z,9.70
2017-08-14T21:08:07.997Z,9.90
2017-08-14T21:10:34.296Z,10.10
2017-08-14T21:13:01.257Z,11.63
2017-08-14T21:15:28.811Z,9.97
2017-08-14T21:17:55.434Z,8.90
2017-08-14T21:20:22.733Z,11.00
2017-08-14T21:22:49.057Z,9.87
2017-08-14T21:25:16.705Z,10.27
2017-08-14T21:27:43.382Z,9.63
2017-08-14T21:30:09.852Z,9.97
2017-08-14T21:32:37.330Z,9.93
2017-08-14T21:35:03.744Z,8.63
2017-08-14T21:37:30.139Z,11.60
2017-08-14T21:39:57.068Z,11.43
2017-08-14T21:42:23.732Z,11.07
2017-08-14T21:44:50.156Z,10.13
2017-08-14T21:47:17.108Z,10.27
2017-08-14T21:49:43.631Z,9.67
2017-08-14T21:52:09.890Z,10.60
2017-08-14T21:54:37.027Z,12.03
2017-08-14T21:57:04.326Z,17.50
2017-08-14T21:59:30.500Z,11.03
2017-08-14T22:01:56.724Z,10.37
2017-08-14T22:04:22.950Z,9.30
2017-08-14T22:06:49.129Z,10.20
2017-08-14T22:09:16.695Z,9.73
2017-08-14T22:11:43.000Z,10.33
2017-08-14T22:14:09.275Z,9.13
2017-08-14T22:16:35.901Z,9.63
2017-08-14T22:19:02.134Z,10.80
2017-08-14T22:21:28.394Z,9.67
2017-08-14T22:23:54.696Z,10.00
2017-08-14T22:26:36.671Z,10.90
2017-08-14T22:29:03.131Z,9.70
2017-08-14T22:31:29.408Z,9.73
2017-08-14T22:33:55.994Z,9.80
2017-08-14T22:36:23.881Z,9.50
2017-08-14T22:38:50.098Z,9.73
2017-08-14T22:41:16.334Z,10.07
2017-08-14T22:43:43.494Z,9.53
2017-08-14T22:46:10.038Z,9.57
2017-08-14T22:48:36.317Z,9.17
2017-08-14T22:51:02.554Z,10.47
2017-08-14T22:53:28.710Z,10.60
2017-08-14T22:55:54.867Z,9.37
2017-08-14T22:58:21.118Z,10.33
2017-08-14T23:00:47.310Z,9.53
2017-08-14T23:03:13.673Z,10.77
2017-08-14T23:05:41.200Z,11.27
2017-08-14T23:08:07.454Z,11.67
2017-08-14T23:10:33.694Z,14.03
2017-08-14T23:13:00.073Z,12.23
2017-08-14T23:15:26.240Z,10.60
2017-08-14T23:17:52.426Z,10.03
2017-08-14T23:20:19.476Z,10.80
2017-08-14T23:22:46.020Z,10.30
2017-08-14T23:25:12.246Z,11.30
2017-08-14T23:27:38.620Z,11.37
2017-08-14T23:30:04.777Z,12.40
2017-08-14T23:32:31.002Z,10.50
2017-08-14T23:34:57.186Z,10.83
2017-08-14T23:37:23.379Z,10.83
2017-08-14T23:39:50.772Z,10.13
2017-08-14T23:42:17.253Z,9.80
2017-08-14T23:44:43.591Z,10.77
2017-08-14T23:47:09.899Z,9.63
2017-08-14T23:49:36.803Z,9.97
2017-08-14T23:52:02.948Z,10.93
2017-08-14T23:54:29.124Z,11.20
2017-08-14T23:56:55.488Z,10.60
2017-08-14T23:59:22.440Z,10.80
